Time;durP1;ratioP1;P1;durP2;ratioP2;P2;SDS_P1;SDS_P2;PMS_P1;PMS_P2;Temp;Humidity;BMP_temperature;BMP_pressure;BME280_temperature;BME280_humidity;BME280_pressure;Samples;Min_cycle;Max_cycle;Signal;HPM_P1;HPM_P2
2021/05/18 00:01:41;;;;;;;2.60;1.93;;;;;;;25.73;46.20;98806.00;124511;1101;64891;-60
2021/05/18 00:04:14;;;;;;;3.95;1.80;;;;;;;25.72;46.18;98799.05;124621;1101;64307;-60
2021/05/18 00:06:43;;;;;;;2.93;1.90;;;;;;;25.73;46.14;98806.00;124507;1096;64330;-60
2021/05/18 00:11:58;;;;;;;2.63;1.87;;;;;;;25.71;46.44;98795.58;124510;1101;64611;-60
2021/05/18 00:14:27;;;;;;;1.90;1.60;;;;;;;25.71;45.81;98792.91;124495;1101;64767;-60
2021/05/18 00:16:55;;;;;;;2.50;1.60;;;;;;;25.72;46.38;98788.38;124536;1101;64426;-60
2021/05/18 00:19:24;;;;;;;5.17;1.73;;;;;;;25.71;46.24;98787.58;124571;1096;64284;-61
2021/05/18 00:21:53;;;;;;;2.10;1.90;;;;;;;25.71;46.35;98784.09;124552;1096;63683;-60
2021/05/18 00:24:21;;;;;;;2.25;1.80;;;;;;;25.70;46.28;98783.29;124583;1096;64383;-60
2021/05/18 00:26:50;;;;;;;2.83;1.70;;;;;;;25.71;46.31;98781.42;124701;1097;64365;-60
2021/05/18 00:29:19;;;;;;;2.47;1.73;;;;;;;25.71;46.53;98782.25;124433;1101;64645;-60
2021/05/18 00:31:49;;;;;;;2.70;2.10;;;;;;;25.71;46.20;98787.58;124540;1096;64667;-60
2021/05/18 00:34:19;;;;;;;2.97;1.80;;;;;;;25.70;46.49;98785.95;124583;1096;64329;-60
2021/05/18 00:36:49;;;;;;;5.03;2.03;;;;;;;25.71;46.10;98781.42;124537;1096;64326;-61
2021/05/18 00:39:18;;;;;;;2.60;1.90;;;;;;;25.71;46.00;98778.75;124621;1102;64374;-61
2021/05/18 00:41:47;;;;;;;2.40;1.90;;;;;;;25.69;46.23;98779.80;124529;1101;64425;-61
2021/05/18 00:44:16;;;;;;;3.17;1.97;;;;;;;25.69;46.32;98785.13;124533;1097;64282;-61
2021/05/18 00:46:44;;;;;;;2.70;1.93;;;;;;;25.69;46.03;98785.13;124559;1101;64476;-61
2021/05/18 00:49:13;;;;;;;2.87;1.93;;;;;;;25.69;46.12;98781.66;124447;1097;64412;-61
2021/05/18 00:51:44;;;;;;;2.35;1.75;;;;;;;25.68;46.21;98783.50;124581;1101;64262;-60
2021/05/18 00:54:25;;;;;;;2.80;2.13;;;;;;;25.68;46.31;98783.50;124281;1096;64279;-61
2021/05/18 00:59:48;;;;;;;2.70;2.00;;;;;;;25.68;46.27;98783.50;124363;1096;64351;-62
2021/05/18 01:02:17;;;;;;;4.70;2.30;;;;;;;25.67;46.19;98773.88;124410;1101;64333;-61
2021/05/18 01:04:48;;;;;;;2.40;1.80;;;;;;;25.69;46.59;98771.80;124522;1101;64326;-61
2021/05/18 01:07:17;;;;;;;2.40;1.90;;;;;;;25.68;46.22;98770.17;124597;1101;64339;-62
2021/05/18 01:09:46;;;;;;;2.40;1.80;;;;;;;25.67;46.10;98765.88;124572;1096;64249;-62
2021/05/18 01:12:14;;;;;;;3.40;1.80;;;;;;;25.67;46.49;98763.22;124535;1096;64421;-62
2021/05/18 01:14:43;;;;;;;2.63;1.97;;;;;;;25.66;46.28;98761.59;124387;1101;64330;-61
2021/05/18 01:17:12;;;;;;;3.73;2.20;;;;;;;25.66;46.01;98769.59;124324;1096;64342;-60
2021/05/18 01:19:40;;;;;;;3.40;1.97;;;;;;;25.66;46.61;98769.59;124277;1096;64349;-61
2021/05/18 01:22:14;;;;;;;4.05;1.70;;;;;;;25.67;46.33;98781.88;124452;1101;64363;-62
2021/05/18 01:24:43;;;;;;;4.33;1.80;;;;;;;25.67;46.24;98776.55;124484;1097;64335;-60
2021/05/18 01:27:11;;;;;;;2.40;2.20;;;;;;;25.67;46.36;98787.21;124284;1101;64345;-61
2021/05/18 01:29:43;;;;;;;2.50;1.97;;;;;;;25.66;46.38;98780.25;124402;1096;64389;-61
2021/05/18 01:32:13;;;;;;;2.23;1.83;;;;;;;25.66;46.35;98782.13;124360;1101;64419;-61
2021/05/18 01:34:41;;;;;;;4.07;2.13;;;;;;;25.67;46.47;98787.21;124605;1101;64328;-61
2021/05/18 01:37:23;;;;;;;3.37;1.80;;;;;;;25.66;46.41;98785.59;124524;1096;64326;-61
2021/05/18 01:40:01;;;;;;;3.60;1.90;;;;;;;25.66;46.42;98790.92;124538;1101;64335;-61
2021/05/18 01:42:49;;;;;;;2.97;2.23;;;;;;;25.65;46.48;98802.63;124294;1096;64217;-58
2021/05/18 01:45:20;;;;;;;2.47;1.90;;;;;;;25.66;46.57;98806.12;124309;1101;64307;-57
2021/05/18 01:47:53;;;;;;;3.77;2.10;;;;;;;25.66;46.40;98809.58;124516;1097;64377;-57
2021/05/18 01:50:36;;;;;;;3.40;2.07;;;;;;;25.66;46.89;98825.58;124543;1101;64334;-58
2021/05/18 01:53:07;;;;;;;2.63;2.00;;;;;;;25.65;46.33;98815.16;124217;1097;64214;-57
2021/05/18 01:55:44;;;;;;;3.30;2.30;;;;;;;25.64;46.49;98819.66;124565;1101;64307;-56
2021/05/18 01:58:14;;;;;;;2.97;2.03;;;;;;;25.65;46.50;98823.95;124598;1101;64300;-55
2021/05/18 02:01:04;;;;;;;3.07;2.03;;;;;;;25.65;46.51;98831.95;124498;1096;64255;-57
2021/05/18 02:03:34;;;;;;;2.60;1.87;;;;;;;25.65;46.12;98823.95;124495;1097;64473;-57
2021/05/18 02:06:03;;;;;;;4.00;2.10;;;;;;;25.65;46.42;98815.95;124562;1097;64332;-57
2021/05/18 02:08:37;;;;;;;3.10;2.10;;;;;;;25.64;46.78;98818.86;124518;1096;64331;-57
2021/05/18 02:11:10;;;;;;;2.80;2.20;;;;;;;25.64;46.46;98821.53;124557;1096;64435;-57
2021/05/18 02:13:45;;;;;;;2.83;1.90;;;;;;;25.64;46.63;98818.86;124314;1101;64330;-56
2021/05/18 02:16:25;;;;;;;2.53;2.00;;;;;;;25.63;46.27;98831.36;124262;1096;64332;-57
2021/05/18 02:22:07;;;;;;;4.73;1.80;;;;;;;25.64;46.38;98824.20;124487;1096;64336;-56
2021/05/18 02:27:10;;;;;;;3.70;2.05;;;;;;;25.63;46.53;98823.37;124488;1097;64336;-58
2021/05/18 02:29:39;;;;;;;5.93;2.23;;;;;;;25.62;46.63;98827.08;124625;1101;64496;-58
2021/05/18 02:32:09;;;;;;;3.40;2.00;;;;;;;25.62;46.60;98832.41;124662;1101;64358;-58
2021/05/18 02:34:50;;;;;;;4.40;2.20;;;;;;;25.63;46.47;98834.03;124586;1096;64347;-58
2021/05/18 02:37:19;;;;;;;3.70;2.00;;;;;;;25.63;46.54;98834.03;124562;1101;64333;-59
2021/05/18 02:39:50;;;;;;;3.87;2.43;;;;;;;25.63;46.69;98836.70;124291;1101;64438;-60
2021/05/18 02:42:20;;;;;;;4.10;2.63;;;;;;;25.63;46.42;98839.36;124554;1096;65700;-60
2021/05/18 02:50:12;;;;;;;4.03;2.33;;;;;;;25.63;46.69;98843.90;124553;1097;64440;-60
2021/05/18 02:52:44;;;;;;;2.67;2.07;;;;;;;25.62;46.90;98844.94;124504;1096;64218;-61
2021/05/18 02:55:26;;;;;;;3.83;2.60;;;;;;;25.63;46.87;98851.89;124451;1097;64384;-61
2021/05/18 02:57:54;;;;;;;5.77;2.33;;;;;;;25.61;46.54;98846.77;124601;1101;64313;-56
2021/05/18 03:00:24;;;;;;;5.27;2.30;;;;;;;25.62;46.38;98852.94;124321;1104;64425;-57
2021/05/18 03:02:52;;;;;;;3.73;2.30;;;;;;;25.62;46.61;98855.59;124500;1101;64323;-57
2021/05/18 03:05:25;;;;;;;3.60;2.30;;;;;;;25.62;46.60;98852.94;124383;1102;64796;-57
2021/05/18 03:07:56;;;;;;;4.03;2.23;;;;;;;25.62;46.60;98863.59;124341;1101;64483;-57
2021/05/18 03:10:24;;;;;;;3.00;2.13;;;;;;;25.61;46.38;98857.44;124304;1101;64336;-57
2021/05/18 03:12:53;;;;;;;2.77;2.30;;;;;;;25.61;46.58;98857.44;124573;1101;64556;-57
2021/05/18 03:15:22;;;;;;;4.73;2.63;;;;;;;25.61;46.50;98862.77;124492;1101;64354;-58
2021/05/18 03:17:51;;;;;;;3.47;2.20;;;;;;;25.61;46.35;98860.10;124551;1097;64258;-58
2021/05/18 03:20:19;;;;;;;4.50;2.70;;;;;;;25.61;46.69;98865.44;124265;1101;64556;-58
2021/05/18 03:22:48;;;;;;;2.60;2.25;;;;;;;25.61;46.61;98864.64;124535;1097;64336;-58
2021/05/18 03:25:17;;;;;;;2.93;2.60;;;;;;;25.59;46.28;98854.22;124340;1096;64262;-59
2021/05/18 03:27:48;;;;;;;4.70;2.53;;;;;;;25.61;46.30;98859.30;124778;1096;64365;-57
2021/05/18 03:35:50;;;;;;;4.07;2.27;;;;;;;25.59;46.33;98864.05;124516;1101;64336;-58
2021/05/18 03:38:26;;;;;;;3.43;2.33;;;;;;;25.59;46.19;98864.05;124585;1097;64211;-58
2021/05/18 03:41:02;;;;;;;3.50;2.20;;;;;;;25.59;46.36;98859.55;124455;1101;64322;-58
2021/05/18 03:54:47;;;;;;;2.40;2.20;;;;;;;25.58;46.32;98865.09;124542;1097;64339;-61
2021/05/18 04:11:48;;;;;;;3.70;2.35;;;;;;;25.57;46.17;98844.80;124451;1097;64326;-60
2021/05/18 04:16:56;;;;;;;3.85;1.90;;;;;;;25.57;45.93;98847.47;124524;1101;64365;-63
2021/05/18 04:19:30;;;;;;;3.40;2.03;;;;;;;25.57;45.91;98850.14;124544;1097;64342;-63
2021/05/18 04:22:15;;;;;;;2.33;1.90;;;;;;;25.57;45.84;98860.80;124516;1096;64365;-63
2021/05/18 04:59:56;;;;;;;6.27;3.97;;;;;;;25.65;47.23;98869.27;124531;1101;64291;-58
2021/05/18 05:08:23;;;;;;;5.80;3.90;;;;;;;25.69;47.69;98870.44;124349;1097;64774;-59
2021/05/18 05:16:07;;;;;;;19.20;6.40;;;;;;;25.75;47.90;98873.23;124344;1096;64332;-65
2021/05/18 05:18:36;;;;;;;11.50;5.25;;;;;;;25.75;47.73;98881.23;124234;1098;64330;-65
2021/05/18 05:21:04;;;;;;;31.07;6.17;;;;;;;25.76;48.24;98877.53;124401;1097;64367;-65
2021/05/18 05:23:33;;;;;;;14.37;6.17;;;;;;;25.77;48.04;98871.16;124615;1101;64361;-65
2021/05/18 05:26:03;;;;;;;21.53;7.00;;;;;;;25.77;47.98;98869.31;124524;1097;64339;-66
2021/05/18 05:28:31;;;;;;;19.03;6.40;;;;;;;25.79;47.55;98871.73;124321;1104;64272;-65
2021/05/18 05:30:59;;;;;;;28.90;7.45;;;;;;;25.79;47.73;98872.57;124496;1101;64411;-64
2021/05/18 05:33:30;;;;;;;34.30;8.77;;;;;;;25.79;47.66;98874.41;124511;1097;64438;-65
2021/05/18 05:35:59;;;;;;;30.05;8.90;;;;;;;25.80;47.68;98876.03;124389;1102;64332;-64
2021/05/18 05:38:30;;;;;;;27.27;9.20;;;;;;;25.84;48.05;98882.53;124340;1097;64336;-63
2021/05/18 05:40:59;;;;;;;29.77;8.77;;;;;;;25.82;47.70;98881.95;124461;1096;64355;-64
2021/05/18 05:43:28;;;;;;;28.07;8.27;;;;;;;25.83;47.75;98883.58;124553;1097;64272;-64
2021/05/18 05:45:56;;;;;;;33.37;8.83;;;;;;;25.85;47.55;98881.49;124540;1101;64364;-63
2021/05/18 05:48:25;;;;;;;27.13;8.40;;;;;;;25.84;47.45;98883.33;124665;1097;64358;-65
2021/05/18 05:50:53;;;;;;;26.15;7.55;;;;;;;25.85;47.70;98878.83;124621;1097;64327;-63
2021/05/18 05:53:24;;;;;;;27.43;6.87;;;;;;;25.85;47.40;98873.49;124632;1101;64330;-64
2021/05/18 05:55:52;;;;;;;23.10;7.10;;;;;;;25.87;46.93;98873.25;124603;1101;64358;-63
2021/05/18 05:58:21;;;;;;;23.80;6.97;;;;;;;25.87;47.04;98870.58;124606;1101;64422;-63
2021/05/18 06:00:49;;;;;;;25.50;7.40;;;;;;;25.88;47.12;98874.88;124578;1101;64349;-63
2021/05/18 06:03:18;;;;;;;23.40;7.80;;;;;;;25.89;47.04;98874.66;124597;1101;64319;-63
2021/05/18 06:05:47;;;;;;;16.83;6.60;;;;;;;25.88;47.04;98864.20;124614;1096;64300;-64
2021/05/18 06:08:15;;;;;;;21.77;6.67;;;;;;;25.88;47.08;98870.37;124597;1101;64326;-64
2021/05/18 06:10:46;;;;;;;21.87;7.60;;;;;;;25.88;47.05;98877.55;124601;1097;64259;-63
2021/05/18 06:36:51;;;;;;;15.07;5.67;;;;;;;25.87;46.44;98860.74;124628;1096;64288;-62
2021/05/18 06:41:31;;;;;;;15.13;5.57;;;;;;;25.87;46.62;98865.25;124573;1096;64345;-62
2021/05/18 06:49:20;;;;;;;11.73;5.10;;;;;;;25.87;46.39;98866.08;124567;1096;64450;-63
2021/05/18 06:51:52;;;;;;;12.90;5.25;;;;;;;25.87;46.71;98863.41;124648;1101;64432;-63
2021/05/18 06:54:20;;;;;;;10.67;4.83;;;;;;;25.88;46.22;98866.88;124594;1101;64336;-63
2021/05/18 06:56:53;;;;;;;16.30;5.25;;;;;;;25.87;46.13;98870.58;124566;1101;64259;-63
2021/05/18 07:01:58;;;;;;;12.03;5.18;;;;;;;25.88;46.14;98862.37;124501;1101;64330;-62
2021/05/18 07:04:28;;;;;;;12.70;5.05;;;;;;;25.88;46.29;98861.54;124611;1096;64306;-63
2021/05/18 07:07:16;;;;;;;10.13;4.70;;;;;;;25.87;46.12;98855.41;124570;1101;64310;-63
2021/05/18 07:09:46;;;;;;;10.77;4.90;;;;;;;25.87;46.14;98860.74;124396;1101;64332;-62
2021/05/18 07:12:14;;;;;;;12.60;5.10;;;;;;;25.89;46.27;98855.99;124560;1096;64333;-62
2021/05/18 07:14:43;;;;;;;11.17;4.70;;;;;;;25.89;46.20;98847.99;124558;1101;64217;-62
2021/05/18 07:17:12;;;;;;;11.77;4.73;;;;;;;25.89;46.14;98853.33;124561;1101;64326;-62
2021/05/18 07:19:45;;;;;;;10.07;4.87;;;;;;;25.89;45.93;98853.33;124593;1096;64285;-62
2021/05/18 07:22:13;;;;;;;9.00;4.90;;;;;;;25.90;46.06;98848.79;124599;1101;64333;-64
2021/05/18 07:24:43;;;;;;;9.37;4.10;;;;;;;25.91;46.21;98851.24;124554;1096;64358;-64
2021/05/18 07:27:12;;;;;;;11.87;4.93;;;;;;;25.91;46.14;98851.24;124592;1097;64450;-63
2021/05/18 07:29:41;;;;;;;11.10;4.60;;;;;;;25.93;45.58;98849.16;124466;1101;64348;-63
2021/05/18 07:32:09;;;;;;;10.03;4.83;;;;;;;25.92;45.89;98842.20;124450;1101;64371;-62
2021/05/18 07:34:40;;;;;;;10.43;4.57;;;;;;;25.93;46.09;98833.16;124445;1097;64329;-62
2021/05/18 07:37:09;;;;;;;7.70;4.40;;;;;;;25.94;45.71;98844.63;124538;1096;64328;-63
2021/05/18 07:39:37;;;;;;;7.13;4.30;;;;;;;25.94;45.90;98834.78;124444;1097;64965;-62
2021/05/18 07:42:06;;;;;;;10.77;4.50;;;;;;;25.93;46.00;98827.82;124435;1096;64339;-62
2021/05/18 07:44:35;;;;;;;7.90;4.23;;;;;;;25.93;46.02;98827.82;124477;1097;64265;-62
2021/05/18 07:47:05;;;;;;;9.77;4.57;;;;;;;25.93;45.82;98822.48;124486;1101;64287;-63
2021/05/18 07:49:38;;;;;;;8.37;4.80;;;;;;;25.94;45.80;98818.78;124607;1096;64256;-62
2021/05/18 08:05:50;;;;;;;7.83;4.77;;;;;;;25.97;45.98;98801.48;124514;1096;64256;-63
2021/05/18 08:08:19;;;;;;;6.33;4.13;;;;;;;25.98;45.86;98808.45;124526;1101;64473;-62
2021/05/18 08:11:07;;;;;;;6.43;4.90;;;;;;;25.97;45.84;98804.98;124499;1101;64405;-63
2021/05/18 08:13:54;;;;;;;7.80;4.43;;;;;;;25.98;46.11;98800.44;124464;1101;64358;-62
2021/05/18 08:47:44;;;;;;;7.60;4.93;;;;;;;25.96;45.71;98787.36;124363;1097;64355;-59
2021/05/18 09:37:22;;;;;;;9.40;5.23;;;;;;;26.11;46.64;98775.38;124523;1097;64332;-59
2021/05/18 10:34:30;;;;;;;6.20;4.73;;;;;;;26.12;46.27;98767.16;124322;1096;64358;-57
2021/05/18 10:37:28;;;;;;;4.70;4.20;;;;;;;26.12;46.23;98752.98;124526;1101;64371;-57
2021/05/18 10:40:23;;;;;;;5.63;4.43;;;;;;;26.11;46.06;98738.86;124555;1097;64383;-57
2021/05/18 10:43:19;;;;;;;5.00;4.13;;;;;;;26.12;46.02;98745.81;124654;1096;64259;-57
2021/05/18 10:45:54;;;;;;;5.50;3.87;;;;;;;26.11;46.45;98744.19;124319;1097;64425;-57
2021/05/18 10:48:26;;;;;;;6.57;4.30;;;;;;;26.12;45.93;98735.14;124354;1096;64306;-56
2021/05/18 10:50:58;;;;;;;5.00;3.90;;;;;;;26.12;46.08;98736.98;124478;1097;64402;-57
2021/05/18 10:53:28;;;;;;;5.33;4.07;;;;;;;26.11;46.09;98736.19;124536;1097;64334;-57
2021/05/18 10:56:03;;;;;;;4.97;3.90;;;;;;;26.11;45.91;98744.19;124432;1101;64397;-58
2021/05/18 10:58:32;;;;;;;6.53;4.13;;;;;;;26.12;46.09;98739.66;124279;1104;64425;-58
2021/05/18 11:01:01;;;;;;;4.43;3.77;;;;;;;26.13;45.93;98735.97;124320;1101;64358;-58
2021/05/18 11:03:34;;;;;;;5.43;4.00;;;;;;;26.15;46.06;98731.21;124587;1096;64338;-58
2021/05/18 11:06:06;;;;;;;5.23;4.00;;;;;;;26.17;45.90;98734.45;124487;1101;64303;-58
2021/05/18 11:08:35;;;;;;;5.90;4.57;;;;;;;26.18;46.10;98727.28;124494;1096;64287;-58
2021/05/18 11:11:09;;;;;;;;;;;;;;;26.17;46.23;98725.66;124548;1096;64326;-57
2021/05/18 11:13:37;;;;;;;6.70;3.87;;;;;;;26.16;45.83;98724.03;124535;1101;64248;-57
2021/05/18 11:16:16;;;;;;;6.67;3.80;;;;;;;26.17;46.47;98714.98;124355;1097;64343;-57
2021/05/18 11:18:48;;;;;;;7.40;3.75;;;;;;;26.17;46.40;98704.31;124251;1104;64785;-61
2021/05/18 11:21:20;;;;;;;4.50;3.77;;;;;;;26.20;46.57;98698.51;124557;1101;64394;-61
2021/05/18 11:23:49;;;;;;;6.90;4.10;;;;;;;26.20;46.54;98691.30;124571;1101;64268;-61
